createdAt,value
2023-03-28T00:00:12.010Z,99.90
2023-03-28T00:01:14.350Z,99.90
2023-03-28T00:02:16.041Z,99.90
2023-03-28T00:03:19.371Z,99.90
2023-03-28T00:04:22.962Z,99.90
2023-03-28T00:05:24.854Z,99.90
2023-03-28T00:06:27.537Z,99.90
2023-03-28T00:07:29.491Z,99.90
2023-03-28T00:08:31.287Z,99.90
2023-03-28T00:09:32.955Z,99.90
2023-03-28T00:10:34.431Z,99.90
2023-03-28T00:11:36.081Z,99.90
2023-03-28T00:12:37.797Z,99.90
2023-03-28T00:13:39.529Z,99.90
2023-03-28T00:14:42.593Z,99.90
2023-03-28T00:15:44.729Z,99.90
2023-03-28T00:16:46.405Z,99.90
2023-03-28T00:17:48.029Z,99.90
2023-03-28T00:18:51.016Z,99.90
2023-03-28T00:19:53.880Z,99.90
2023-03-28T00:20:55.510Z,99.90
2023-03-28T00:21:57.628Z,99.90
2023-03-28T00:22:59.304Z,99.90
2023-03-28T00:24:03.766Z,99.90
2023-03-28T00:25:08.612Z,99.90
2023-03-28T00:26:13.534Z,99.90
2023-03-28T00:27:16.062Z,99.90
2023-03-28T00:28:17.934Z,99.90
2023-03-28T00:29:21.238Z,99.90
2023-03-28T00:30:23.137Z,99.90
2023-03-28T00:31:26.358Z,99.90
2023-03-28T00:32:27.907Z,99.90
2023-03-28T00:33:29.368Z,99.90
2023-03-28T00:34:31.251Z,99.90
2023-03-28T00:35:34.847Z,99.90
2023-03-28T00:36:38.986Z,99.90
2023-03-28T00:37:41.901Z,99.90
2023-03-28T00:38:43.663Z,99.90
2023-03-28T00:39:49.931Z,99.90
2023-03-28T00:40:57.924Z,99.90
2023-03-28T00:42:01.659Z,99.90
2023-03-28T00:43:03.386Z,99.90
2023-03-28T00:44:39.952Z,99.90
2023-03-28T00:45:42.848Z,99.90
2023-03-28T00:46:44.713Z,99.90
2023-03-28T00:47:57.775Z,99.90
2023-03-28T00:49:23.513Z,99.90
2023-03-28T00:50:31.483Z,99.90
2023-03-28T00:51:37.445Z,99.90
2023-03-28T00:52:47.259Z,99.90
2023-03-28T00:53:52.465Z,99.90
2023-03-28T00:54:57.526Z,99.90
2023-03-28T00:56:04.281Z,99.90
2023-03-28T00:57:09.008Z,99.90
2023-03-28T00:58:14.282Z,99.90
2023-03-28T00:59:19.950Z,99.90
2023-03-28T01:00:23.109Z,99.90
2023-03-28T01:01:25.142Z,99.90
2023-03-28T01:02:27.222Z,99.90
2023-03-28T01:03:33.873Z,99.90
2023-03-28T01:04:58.025Z,99.90
2023-03-28T01:06:04.685Z,99.90
2023-03-28T01:07:14.107Z,99.90
2023-03-28T01:08:28.483Z,99.90
2023-03-28T01:09:31.374Z,99.90
2023-03-28T01:10:33.741Z,99.90
2023-03-28T01:11:39.356Z,99.90
2023-03-28T01:12:44.160Z,99.90
2023-03-28T01:13:49.829Z,99.90
2023-03-28T01:14:52.451Z,99.90
2023-03-28T01:15:54.235Z,99.90
2023-03-28T01:16:59.006Z,99.90
2023-03-28T01:18:03.641Z,99.90
2023-03-28T01:19:07.268Z,99.90
2023-03-28T01:20:09.096Z,99.90
2023-03-28T01:21:39.914Z,99.90
2023-03-28T01:23:03.306Z,99.90
2023-03-28T01:24:41.610Z,99.90
2023-03-28T01:25:43.635Z,99.90
2023-03-28T01:26:56.048Z,99.90
2023-03-28T01:28:06.614Z,99.90
2023-03-28T01:29:27.791Z,99.90
2023-03-28T01:30:43.613Z,99.90
2023-03-28T01:32:35.921Z,99.90
2023-03-28T01:34:21.262Z,99.90
2023-03-28T01:35:37.986Z,99.90
2023-03-28T01:36:52.527Z,99.90
2023-03-28T01:37:58.364Z,99.90
2023-03-28T01:39:16.923Z,99.90
2023-03-28T01:40:24.038Z,99.90
2023-03-28T01:41:52.165Z,99.90
2023-03-28T01:43:16.004Z,99.90
2023-03-28T01:44:25.228Z,99.90
2023-03-28T01:45:38.127Z,99.90
2023-03-28T01:46:49.779Z,99.90
2023-03-28T01:48:12.036Z,99.90
2023-03-28T01:49:31.778Z,99.90
2023-03-28T01:50:38.778Z,99.90
2023-03-28T01:52:17.687Z,99.90
2023-03-28T01:53:30.419Z,99.90
2023-03-28T01:54:52.327Z,99.90
2023-03-28T01:56:22.410Z,99.90
2023-03-28T01:57:59.974Z,99.90
2023-03-28T01:59:09.342Z,99.90
2023-03-28T02:00:47.981Z,99.90
2023-03-28T02:02:12.012Z,99.90
2023-03-28T02:03:27.060Z,99.90
2023-03-28T02:04:52.029Z,99.90
2023-03-28T02:06:01.177Z,99.90
2023-03-28T02:07:04.566Z,99.90
2023-03-28T02:08:14.273Z,99.90
2023-03-28T02:09:26.200Z,99.90
2023-03-28T02:10:40.811Z,99.90
2023-03-28T02:12:21.556Z,99.90
2023-03-28T02:13:47.256Z,99.90
2023-03-28T02:15:12.478Z,99.90
2023-03-28T02:16:37.121Z,99.90
2023-03-28T02:18:04.520Z,99.90
2023-03-28T02:19:25.177Z,99.90
2023-03-28T02:20:49.964Z,99.90
2023-03-28T02:22:27.167Z,99.90
2023-03-28T02:23:42.563Z,99.90
2023-03-28T02:24:58.121Z,99.90
2023-03-28T02:26:25.379Z,99.90
2023-03-28T02:27:34.824Z,99.90
2023-03-28T02:28:58.030Z,99.90
2023-03-28T02:30:08.610Z,99.90
2023-03-28T02:31:13.744Z,99.90
2023-03-28T02:32:17.133Z,99.90
2023-03-28T02:33:33.484Z,99.90
2023-03-28T02:34:35.578Z,99.90
2023-03-28T02:36:21.377Z,99.90
2023-03-28T02:37:47.671Z,99.90
2023-03-28T02:39:18.732Z,99.90
2023-03-28T02:40:31.902Z,99.90
2023-03-28T02:42:07.516Z,99.90
2023-03-28T02:43:12.209Z,99.90
2023-03-28T02:44:47.776Z,99.90
2023-03-28T02:46:15.410Z,99.90
2023-03-28T02:47:25.933Z,99.90
2023-03-28T02:48:36.074Z,99.90
2023-03-28T02:49:50.465Z,99.90
2023-03-28T02:51:18.117Z,99.90
2023-03-28T02:52:53.425Z,99.90
2023-03-28T02:54:08.764Z,99.90
2023-03-28T02:55:39.122Z,99.90
2023-03-28T02:57:18.693Z,99.90
2023-03-28T02:58:38.055Z,99.90
2023-03-28T02:59:57.328Z,99.90
2023-03-28T03:00:58.884Z,99.90
2023-03-28T03:02:02.534Z,99.90
2023-03-28T03:03:05.426Z,99.90
2023-03-28T03:04:07.869Z,99.90
2023-03-28T03:05:09.960Z,99.90
2023-03-28T03:06:12.548Z,99.90
2023-03-28T03:07:14.568Z,99.90
2023-03-28T03:08:17.032Z,99.90
2023-03-28T03:09:19.235Z,99.90
2023-03-28T03:10:22.255Z,99.90
2023-03-28T03:11:28.041Z,99.90
2023-03-28T03:12:29.496Z,99.90
2023-03-28T03:13:33.175Z,99.90
2023-03-28T03:14:38.973Z,99.90
2023-03-28T03:16:04.167Z,99.90
2023-03-28T03:17:06.782Z,99.90
2023-03-28T03:18:08.735Z,99.90
2023-03-28T03:19:10.586Z,99.90
2023-03-28T03:20:13.210Z,99.90
2023-03-28T03:21:14.698Z,99.90
2023-03-28T03:22:20.634Z,99.90
2023-03-28T03:23:24.889Z,99.90
2023-03-28T03:24:29.965Z,99.90
2023-03-28T03:25:35.141Z,99.90
2023-03-28T03:26:56.365Z,99.90
2023-03-28T03:27:57.950Z,99.90
2023-03-28T03:29:00.695Z,99.90
2023-03-28T03:30:03.593Z,99.90
2023-03-28T03:31:20.415Z,99.90
2023-03-28T03:32:39.696Z,99.90
2023-03-28T03:33:42.512Z,99.90
2023-03-28T03:34:46.033Z,99.90
2023-03-28T03:35:47.533Z,99.90
2023-03-28T03:36:53.012Z,99.90
2023-03-28T03:37:54.923Z,99.90
2023-03-28T03:38:56.641Z,99.90
2023-03-28T03:39:58.644Z,99.90
2023-03-28T03:41:06.342Z,99.90
2023-03-28T03:42:08.134Z,99.90
2023-03-28T03:43:09.676Z,99.90
2023-03-28T03:44:12.672Z,99.90
2023-03-28T03:45:15.719Z,99.90
2023-03-28T03:46:17.950Z,99.90
2023-03-28T03:47:21.770Z,99.90
2023-03-28T03:48:25.464Z,99.90
2023-03-28T03:49:32.030Z,99.90
2023-03-28T03:50:37.723Z,99.90
2023-03-28T03:51:46.068Z,99.90
2023-03-28T03:52:51.192Z,99.90
2023-03-28T03:53:58.463Z,99.90
2023-03-28T03:55:09.053Z,99.90
2023-03-28T03:56:13.417Z,99.90
2023-03-28T03:57:27.412Z,99.90
2023-03-28T03:58:34.129Z,99.90
2023-03-28T03:59:40.269Z,99.90
2023-03-28T04:00:46.618Z,99.90
2023-03-28T04:02:03.051Z,99.90
2023-03-28T04:03:25.311Z,99.90
2023-03-28T04:04:28.349Z,99.90
2023-03-28T04:05:57.962Z,99.90
2023-03-28T04:07:00.234Z,99.90
2023-03-28T04:08:02.306Z,99.90
2023-03-28T04:09:09.134Z,99.90
2023-03-28T04:10:28.889Z,99.90
2023-03-28T04:11:30.930Z,99.90
2023-03-28T04:12:32.443Z,99.90
2023-03-28T04:13:34.130Z,99.90
2023-03-28T04:14:37.484Z,99.90
2023-03-28T04:15:58.020Z,99.90
2023-03-28T04:17:16.113Z,99.90
2023-03-28T04:18:20.521Z,99.90
2023-03-28T04:19:24.597Z,99.90
2023-03-28T04:20:29.640Z,99.90
2023-03-28T04:21:42.862Z,99.90
2023-03-28T04:22:46.349Z,99.90
2023-03-28T04:23:50.859Z,99.90
2023-03-28T04:25:41.838Z,99.90
2023-03-28T04:26:56.284Z,99.90
2023-03-28T04:28:01.736Z,99.90
2023-03-28T04:29:06.667Z,99.90
2023-03-28T04:30:12.221Z,99.90
2023-03-28T04:31:51.718Z,99.90
2023-03-28T04:33:33.996Z,99.90
2023-03-28T04:34:39.084Z,99.90
2023-03-28T04:35:48.661Z,99.90
2023-03-28T04:36:50.437Z,99.90
2023-03-28T04:37:53.754Z,99.90
2023-03-28T04:38:58.485Z,99.90
2023-03-28T04:40:21.948Z,99.90
2023-03-28T04:41:46.528Z,99.90
2023-03-28T04:42:51.079Z,99.90
2023-03-28T04:43:59.899Z,99.90
2023-03-28T04:45:04.994Z,99.90
2023-03-28T04:46:07.158Z,99.90
2023-03-28T04:47:11.865Z,99.90
2023-03-28T04:48:13.725Z,99.90
2023-03-28T04:49:15.623Z,99.90
2023-03-28T04:50:17.256Z,99.90
2023-03-28T04:51:19.256Z,99.90
2023-03-28T04:52:20.803Z,99.90
2023-03-28T04:53:23.128Z,99.90
2023-03-28T04:54:57.128Z,99.90
2023-03-28T04:56:00.108Z,99.90
2023-03-28T04:57:02.538Z,99.90
2023-03-28T04:58:12.797Z,99.90
2023-03-28T04:59:15.390Z,99.90
2023-03-28T05:00:17.650Z,99.90
2023-03-28T05:01:49.461Z,99.90
2023-03-28T05:03:14.345Z,99.90
2023-03-28T05:04:26.642Z,99.90
2023-03-28T05:05:28.545Z,99.90
2023-03-28T05:06:31.720Z,99.90
2023-03-28T05:07:36.776Z,99.90
2023-03-28T05:08:39.170Z,99.90
2023-03-28T05:09:40.810Z,99.90
2023-03-28T05:10:43.886Z,99.90
2023-03-28T05:11:46.657Z,99.90
2023-03-28T05:12:48.510Z,99.90
2023-03-28T05:13:51.787Z,99.90
2023-03-28T05:15:11.116Z,99.90
2023-03-28T05:16:35.392Z,99.90
2023-03-28T05:17:58.492Z,99.90
2023-03-28T05:19:10.619Z,99.90
2023-03-28T05:20:32.968Z,99.90
2023-03-28T05:21:34.434Z,99.90
2023-03-28T05:22:36.372Z,99.90
2023-03-28T05:23:38.317Z,99.90
2023-03-28T05:24:48.532Z,99.90
2023-03-28T05:25:54.852Z,99.90
2023-03-28T05:26:56.888Z,99.90
2023-03-28T05:27:59.611Z,99.90
2023-03-28T05:29:01.309Z,99.90
2023-03-28T05:30:02.871Z,99.90
2023-03-28T05:31:07.581Z,99.90
2023-03-28T05:32:09.325Z,99.90
2023-03-28T05:33:10.883Z,99.90
2023-03-28T05:34:12.439Z,99.90
2023-03-28T05:35:20.549Z,99.90
2023-03-28T05:36:24.331Z,99.90
2023-03-28T05:37:28.487Z,99.90
2023-03-28T05:38:31.513Z,99.90
2023-03-28T05:39:37.217Z,99.90
2023-03-28T05:40:40.232Z,99.90
2023-03-28T05:41:41.746Z,99.90
2023-03-28T05:42:43.556Z,99.90
2023-03-28T05:43:48.518Z,99.90
2023-03-28T05:45:01.405Z,99.90
2023-03-28T05:46:29.075Z,99.90
2023-03-28T05:47:30.775Z,99.90
2023-03-28T05:48:32.928Z,99.90
2023-03-28T05:49:34.720Z,99.90
2023-03-28T05:50:36.425Z,99.90
2023-03-28T05:51:40.810Z,99.90
2023-03-28T05:52:42.402Z,99.90
2023-03-28T05:53:44.425Z,99.90
2023-03-28T05:54:50.021Z,99.90
2023-03-28T05:55:53.050Z,99.90
2023-03-28T05:56:54.539Z,99.90
2023-03-28T05:57:59.660Z,99.90
2023-03-28T05:59:09.879Z,99.90
2023-03-28T06:00:13.299Z,99.90
2023-03-28T06:01:23.458Z,99.90
2023-03-28T06:02:29.531Z,99.90
2023-03-28T06:03:32.447Z,99.90
2023-03-28T06:04:40.408Z,99.90
2023-03-28T06:05:46.567Z,99.90
2023-03-28T06:07:03.183Z,99.90
2023-03-28T06:08:04.926Z,99.90
2023-03-28T06:09:07.170Z,99.90
2023-03-28T06:10:21.415Z,99.90
2023-03-28T06:11:36.274Z,99.90
2023-03-28T06:12:43.687Z,99.90
2023-03-28T06:13:45.870Z,99.90
2023-03-28T06:14:49.006Z,99.90
2023-03-28T06:16:11.024Z,99.90
2023-03-28T06:17:12.598Z,99.90
2023-03-28T06:18:22.197Z,99.90
2023-03-28T06:19:25.502Z,99.90
2023-03-28T06:20:29.649Z,99.90
2023-03-28T06:21:31.692Z,99.90
2023-03-28T06:22:38.360Z,99.90
2023-03-28T06:23:42.680Z,99.90
2023-03-28T06:24:55.032Z,99.90
2023-03-28T06:26:06.693Z,99.90
2023-03-28T06:27:14.522Z,99.90
2023-03-28T06:28:16.757Z,99.90
2023-03-28T06:29:41.210Z,99.90
2023-03-28T06:30:42.880Z,99.90
2023-03-28T06:31:44.451Z,99.90
2023-03-28T06:32:47.390Z,99.90
2023-03-28T06:33:49.788Z,99.90
2023-03-28T06:34:54.853Z,99.90
2023-03-28T06:35:58.501Z,99.90
2023-03-28T06:37:04.390Z,99.90
2023-03-28T06:38:20.151Z,99.90
2023-03-28T06:39:26.117Z,99.90
2023-03-28T06:40:31.531Z,99.90
2023-03-28T06:41:34.980Z,99.90
2023-03-28T06:42:37.960Z,99.90
2023-03-28T06:43:59.677Z,99.90
2023-03-28T06:45:27.787Z,99.90
2023-03-28T06:46:34.678Z,99.90
2023-03-28T06:47:36.793Z,99.90
2023-03-28T06:48:39.518Z,99.90
2023-03-28T06:49:58.771Z,99.90
2023-03-28T06:51:20.623Z,99.90
2023-03-28T06:52:23.183Z,99.90
2023-03-28T06:53:26.279Z,99.90
2023-03-28T06:54:27.746Z,99.90
2023-03-28T06:55:29.214Z,99.90
2023-03-28T06:56:30.736Z,99.90
2023-03-28T06:57:33.533Z,99.90
2023-03-28T06:58:45.748Z,99.90
2023-03-28T06:59:49.806Z,99.90
2023-03-28T07:00:59.609Z,99.90
2023-03-28T07:02:18.478Z,99.90
2023-03-28T07:03:20.472Z,99.90
2023-03-28T07:04:22.016Z,99.90
2023-03-28T07:05:24.830Z,99.90
2023-03-28T07:06:27.533Z,99.90
2023-03-28T07:07:29.237Z,99.90
2023-03-28T07:08:31.076Z,99.90
2023-03-28T07:09:33.046Z,99.90
2023-03-28T07:10:45.038Z,99.90
2023-03-28T07:11:46.482Z,99.90
2023-03-28T07:12:48.117Z,99.90
2023-03-28T07:13:49.884Z,99.90
2023-03-28T07:14:53.081Z,99.90
2023-03-28T07:16:05.710Z,99.90
2023-03-28T07:17:07.475Z,99.90
2023-03-28T07:18:12.156Z,99.90
2023-03-28T07:19:13.663Z,99.90
2023-03-28T07:20:18.005Z,99.90
2023-03-28T07:21:19.632Z,99.90
2023-03-28T07:22:21.536Z,99.90
2023-03-28T07:23:23.191Z,99.90
2023-03-28T07:24:24.707Z,99.90
2023-03-28T07:25:46.429Z,99.90
2023-03-28T07:26:48.141Z,99.90
2023-03-28T07:27:49.614Z,99.90
2023-03-28T07:28:53.764Z,99.90
2023-03-28T07:29:55.457Z,99.90
2023-03-28T07:30:57.041Z,99.90
2023-03-28T07:31:58.661Z,99.90
2023-03-28T07:33:12.998Z,99.90
2023-03-28T07:34:18.552Z,99.90
2023-03-28T07:35:20.818Z,99.90
2023-03-28T07:36:27.140Z,99.90
2023-03-28T07:37:45.586Z,99.90
2023-03-28T07:38:52.485Z,99.90
2023-03-28T07:39:57.263Z,99.90
2023-03-28T07:41:01.313Z,99.90
2023-03-28T07:42:03.732Z,99.90
2023-03-28T07:43:05.548Z,99.90
2023-03-28T07:44:08.180Z,99.90
2023-03-28T07:45:10.043Z,99.90
2023-03-28T07:46:16.805Z,99.90
2023-03-28T07:47:19.044Z,99.90
2023-03-28T07:48:21.278Z,99.90
2023-03-28T07:49:23.071Z,99.90
2023-03-28T07:50:25.051Z,99.90
2023-03-28T07:51:27.856Z,99.90
2023-03-28T07:52:29.307Z,99.90
2023-03-28T07:53:30.885Z,99.90
2023-03-28T07:54:33.258Z,99.90
2023-03-28T07:55:48.315Z,99.90
2023-03-28T07:56:59.685Z,99.90
2023-03-28T07:58:27.123Z,99.90
2023-03-28T07:59:32.590Z,99.90
2023-03-28T08:00:34.168Z,99.90
2023-03-28T08:01:56.617Z,99.90
2023-03-28T08:02:58.175Z,99.90
2023-03-28T08:04:00.757Z,99.90
2023-03-28T08:05:11.769Z,99.90
2023-03-28T08:06:24.715Z,99.90
2023-03-28T08:07:34.500Z,99.90
2023-03-28T08:08:36.401Z,99.90
2023-03-28T08:09:51.044Z,99.90
2023-03-28T08:10:57.664Z,99.90
2023-03-28T08:12:00.428Z,99.90
2023-03-28T08:13:01.951Z,99.90
2023-03-28T08:14:05.660Z,99.90
2023-03-28T08:15:07.810Z,99.90
2023-03-28T08:16:09.890Z,99.90
2023-03-28T08:17:11.627Z,99.90
2023-03-28T08:18:13.193Z,99.90
2023-03-28T08:19:15.366Z,99.90
2023-03-28T08:20:35.397Z,99.90
2023-03-28T08:21:47.072Z,99.90
2023-03-28T08:22:49.349Z,99.90
2023-03-28T08:24:14.057Z,99.90
2023-03-28T08:25:30.383Z,99.90
2023-03-28T08:26:32.852Z,99.90
2023-03-28T08:27:35.021Z,99.90
2023-03-28T08:28:42.697Z,99.90
2023-03-28T08:29:46.888Z,99.90
2023-03-28T08:30:52.013Z,99.90
2023-03-28T08:31:53.451Z,99.90
2023-03-28T08:32:56.111Z,99.90
2023-03-28T08:33:58.656Z,99.90
2023-03-28T08:35:07.067Z,99.90
2023-03-28T08:36:14.916Z,99.90
2023-03-28T08:37:17.854Z,99.90
2023-03-28T08:38:22.301Z,99.90
2023-03-28T08:39:24.643Z,99.90
2023-03-28T08:40:28.901Z,99.90
2023-03-28T08:41:40.729Z,99.90
2023-03-28T08:42:53.894Z,99.90
2023-03-28T08:44:26.627Z,99.90
2023-03-28T08:45:51.804Z,99.90
2023-03-28T08:46:59.629Z,99.90
2023-03-28T08:48:16.294Z,99.90
2023-03-28T08:49:18.779Z,99.90
2023-03-28T08:50:27.772Z,99.90
2023-03-28T08:51:40.748Z,99.90
2023-03-28T08:52:44.570Z,99.90
2023-03-28T08:53:51.340Z,99.90
2023-03-28T08:55:12.182Z,99.90
2023-03-28T08:56:16.533Z,99.90
2023-03-28T08:57:29.318Z,99.90
2023-03-28T08:58:39.095Z,99.90
2023-03-28T08:59:43.859Z,99.90
2023-03-28T09:00:47.338Z,99.90
2023-03-28T09:01:50.143Z,99.90
2023-03-28T09:02:52.436Z,99.90
2023-03-28T09:03:54.494Z,99.90
2023-03-28T09:05:17.831Z,99.90
2023-03-28T09:06:40.872Z,99.90
2023-03-28T09:07:55.452Z,99.90
2023-03-28T09:09:34.182Z,99.90
2023-03-28T09:11:05.974Z,99.90
2023-03-28T09:12:32.333Z,99.90
2023-03-28T09:14:11.476Z,99.90
2023-03-28T09:15:30.167Z,99.90
2023-03-28T09:17:07.783Z,99.90
2023-03-28T09:18:18.590Z,99.90
2023-03-28T09:19:56.526Z,99.90
2023-03-28T09:21:31.340Z,99.90
2023-03-28T09:23:10.385Z,99.90
2023-03-28T09:24:51.092Z,99.90
2023-03-28T09:26:22.401Z,99.90
2023-03-28T09:27:32.325Z,99.90
2023-03-28T09:28:37.931Z,99.90
2023-03-28T09:29:42.603Z,99.90
2023-03-28T09:30:48.732Z,99.90
2023-03-28T09:31:56.023Z,99.90
2023-03-28T09:33:00.711Z,99.90
2023-03-28T09:34:03.530Z,99.90
2023-03-28T09:35:24.274Z,99.90
2023-03-28T09:36:41.184Z,99.90
2023-03-28T09:37:54.146Z,99.90
2023-03-28T09:39:06.219Z,99.90
2023-03-28T09:40:34.857Z,99.90
2023-03-28T09:41:54.283Z,99.30
2023-03-28T09:43:42.009Z,99.90
2023-03-28T09:45:23.953Z,99.50
2023-03-28T09:46:42.655Z,98.90
2023-03-28T09:47:55.206Z,99.30
2023-03-28T09:49:00.534Z,98.00
2023-03-28T09:50:12.811Z,97.80
2023-03-28T09:51:19.476Z,99.20
2023-03-28T09:52:22.865Z,99.70
2023-03-28T09:53:33.285Z,98.10
2023-03-28T09:54:35.827Z,98.10
2023-03-28T09:55:38.025Z,98.70
2023-03-28T09:56:43.279Z,98.90
2023-03-28T09:58:11.987Z,98.80
2023-03-28T09:59:44.526Z,98.30
2023-03-28T10:00:51.912Z,97.20
2023-03-28T10:02:28.729Z,98.00
2023-03-28T10:03:34.789Z,98.00
2023-03-28T10:04:40.500Z,98.40
2023-03-28T10:05:45.210Z,99.10
2023-03-28T10:07:19.492Z,99.40
2023-03-28T10:08:40.254Z,98.10
2023-03-28T10:10:16.334Z,98.50
2023-03-28T10:11:20.964Z,98.20
2023-03-28T10:12:34.083Z,98.40
2023-03-28T10:13:42.455Z,98.40
2023-03-28T10:14:47.481Z,98.70
2023-03-28T10:16:26.231Z,98.80
2023-03-28T10:17:37.418Z,97.70
2023-03-28T10:18:41.427Z,98.10
2023-03-28T10:20:04.817Z,99.40
2023-03-28T10:21:15.563Z,97.80
2023-03-28T10:22:34.983Z,98.70
2023-03-28T10:23:41.621Z,98.50
2023-03-28T10:24:47.767Z,98.10
2023-03-28T10:25:56.371Z,98.00
2023-03-28T10:27:06.924Z,99.10
2023-03-28T10:28:16.278Z,98.90
2023-03-28T10:29:18.450Z,98.20
2023-03-28T10:30:25.779Z,97.60
2023-03-28T10:31:31.812Z,96.30
2023-03-28T10:33:05.934Z,96.90
2023-03-28T10:34:30.767Z,97.50
2023-03-28T10:36:02.500Z,97.30
2023-03-28T10:37:21.282Z,98.30
2023-03-28T10:38:37.556Z,95.80
2023-03-28T10:40:33.396Z,95.60
2023-03-28T10:42:01.281Z,96.50
2023-03-28T10:43:39.407Z,97.20
2023-03-28T10:45:04.808Z,97.10
2023-03-28T10:46:41.363Z,96.10
2023-03-28T10:48:18.306Z,96.10
2023-03-28T10:49:21.246Z,96.00
2023-03-28T10:50:37.181Z,95.40
2023-03-28T10:51:42.893Z,94.10
2023-03-28T10:52:59.524Z,94.40
2023-03-28T10:54:22.099Z,94.90
2023-03-28T10:55:38.339Z,95.20
2023-03-28T10:57:13.826Z,95.20
2023-03-28T10:58:26.161Z,95.10
2023-03-28T11:00:09.020Z,94.80
2023-03-28T11:01:25.287Z,93.40
2023-03-28T11:03:11.910Z,95.40
2023-03-28T11:04:24.423Z,94.90
2023-03-28T11:06:01.739Z,96.00
2023-03-28T11:07:30.850Z,95.30
2023-03-28T11:08:55.692Z,94.70
2023-03-28T11:10:41.395Z,95.40
2023-03-28T11:12:22.907Z,94.80
2023-03-28T11:13:47.735Z,93.80
2023-03-28T11:15:11.358Z,93.40
2023-03-28T11:16:53.606Z,93.00
2023-03-28T11:18:30.209Z,92.50
2023-03-28T11:19:50.699Z,92.70
2023-03-28T11:21:27.324Z,92.70
2023-03-28T11:22:59.165Z,92.10
2023-03-28T11:24:38.636Z,92.50
2023-03-28T11:25:51.893Z,93.10
2023-03-28T11:27:48.245Z,93.40
2023-03-28T11:29:19.203Z,92.30
2023-03-28T11:30:26.631Z,93.10
2023-03-28T11:31:51.388Z,92.80
2023-03-28T11:33:08.895Z,92.50
2023-03-28T11:34:17.686Z,93.40
2023-03-28T11:35:36.508Z,94.70
2023-03-28T11:36:51.585Z,94.60
2023-03-28T11:37:55.780Z,94.50
2023-03-28T11:39:06.540Z,94.00
2023-03-28T11:40:23.139Z,93.70
2023-03-28T11:41:38.387Z,94.80
2023-03-28T11:43:06.401Z,94.80
2023-03-28T11:44:29.657Z,94.20
2023-03-28T11:45:53.264Z,95.00
2023-03-28T11:47:13.722Z,94.70
2023-03-28T11:48:33.622Z,92.80
2023-03-28T11:49:58.284Z,93.80
2023-03-28T11:51:40.416Z,93.70
2023-03-28T11:52:52.782Z,92.30
2023-03-28T11:53:59.037Z,92.50
2023-03-28T11:55:11.526Z,93.20
2023-03-28T11:56:23.562Z,93.10
2023-03-28T11:57:47.868Z,92.30
2023-03-28T11:58:53.760Z,92.40
2023-03-28T12:00:33.167Z,92.70
2023-03-28T12:01:47.777Z,93.70
2023-03-28T12:02:57.317Z,92.90
2023-03-28T12:04:07.675Z,93.60
2023-03-28T12:05:25.193Z,94.10
2023-03-28T12:06:52.071Z,94.70
2023-03-28T12:08:08.053Z,94.20
2023-03-28T12:09:24.402Z,93.50
2023-03-28T12:10:36.438Z,92.40
2023-03-28T12:12:24.211Z,93.00
2023-03-28T12:13:46.189Z,93.00
2023-03-28T12:15:00.151Z,92.70
2023-03-28T12:16:36.092Z,92.60
2023-03-28T12:17:48.967Z,93.90
2023-03-28T12:18:58.831Z,92.00
2023-03-28T12:20:49.648Z,92.20
2023-03-28T12:22:18.880Z,92.20
2023-03-28T12:23:47.961Z,93.10
2023-03-28T12:25:28.490Z,92.80
2023-03-28T12:26:40.678Z,93.20
2023-03-28T12:28:00.509Z,93.00
2023-03-28T12:29:39.759Z,92.30
2023-03-28T12:30:58.742Z,92.60
2023-03-28T12:32:08.748Z,92.30
2023-03-28T12:33:47.539Z,93.80
2023-03-28T12:35:26.349Z,92.30
2023-03-28T12:36:51.089Z,91.60
2023-03-28T12:38:20.656Z,91.40
2023-03-28T12:39:48.444Z,91.60
2023-03-28T12:41:09.289Z,92.00
2023-03-28T12:42:15.527Z,92.80
2023-03-28T12:43:22.817Z,92.20
2023-03-28T12:44:28.314Z,90.80
2023-03-28T12:45:38.519Z,91.30
2023-03-28T12:46:46.230Z,90.80
2023-03-28T12:47:53.645Z,90.10
2023-03-28T12:49:04.020Z,90.40
2023-03-28T12:50:25.280Z,90.30
2023-03-28T12:51:32.373Z,90.10
2023-03-28T12:52:38.541Z,90.70
2023-03-28T12:53:59.841Z,90.10
2023-03-28T12:55:04.959Z,90.30
2023-03-28T12:56:21.895Z,90.00
2023-03-28T12:57:46.287Z,90.10
2023-03-28T12:59:38.761Z,91.60
2023-03-28T13:01:18.703Z,91.90
2023-03-28T13:02:52.395Z,91.70
2023-03-28T13:04:27.836Z,91.10
2023-03-28T13:06:03.621Z,91.20
2023-03-28T13:07:16.364Z,91.30
2023-03-28T13:08:42.762Z,91.10
2023-03-28T13:10:00.646Z,91.10
2023-03-28T13:11:09.252Z,91.10
2023-03-28T13:12:20.304Z,90.50
2023-03-28T13:14:03.782Z,90.90
2023-03-28T13:15:14.108Z,91.70
2023-03-28T13:16:24.213Z,91.90
2023-03-28T13:17:34.042Z,91.60
2023-03-28T13:18:44.972Z,91.90
2023-03-28T13:20:10.424Z,91.80
2023-03-28T13:21:11.871Z,90.50
2023-03-28T13:22:34.596Z,91.60
2023-03-28T13:23:46.216Z,90.30
2023-03-28T13:24:48.432Z,90.60
2023-03-28T13:25:58.952Z,91.30
2023-03-28T13:27:30.397Z,89.70
2023-03-28T13:28:44.246Z,88.70
2023-03-28T13:29:51.587Z,89.00
2023-03-28T13:31:39.245Z,89.90
2023-03-28T13:32:51.881Z,90.80
2023-03-28T13:34:00.806Z,90.60
2023-03-28T13:35:05.384Z,90.00
2023-03-28T13:36:10.573Z,90.20
2023-03-28T13:37:23.279Z,88.90
2023-03-28T13:38:31.992Z,90.30
2023-03-28T13:39:33.569Z,90.80
2023-03-28T13:40:56.144Z,91.10
2023-03-28T13:42:00.260Z,90.80
2023-03-28T13:43:01.612Z,90.20
2023-03-28T13:44:15.308Z,90.30
2023-03-28T13:45:23.986Z,90.90
2023-03-28T13:46:31.797Z,90.70
2023-03-28T13:47:40.715Z,89.50
2023-03-28T13:49:07.984Z,90.70
2023-03-28T13:50:30.581Z,91.40
2023-03-28T13:52:14.482Z,91.20
2023-03-28T13:53:15.927Z,91.50
2023-03-28T13:54:17.700Z,92.30
2023-03-28T13:55:24.287Z,91.00
2023-03-28T13:56:30.073Z,91.90
2023-03-28T13:57:31.690Z,92.00
2023-03-28T13:58:33.419Z,91.40
2023-03-28T13:59:38.016Z,92.10
2023-03-28T14:00:40.991Z,92.80
2023-03-28T14:01:48.821Z,92.30
2023-03-28T14:02:52.748Z,91.50
2023-03-28T14:03:55.902Z,91.40
2023-03-28T14:05:25.032Z,90.90
2023-03-28T14:06:29.584Z,90.50
2023-03-28T14:07:31.068Z,91.20
2023-03-28T14:08:33.909Z,91.40
2023-03-28T14:09:35.369Z,92.10
2023-03-28T14:10:41.022Z,90.70
2023-03-28T14:11:44.333Z,90.70
2023-03-28T14:12:46.226Z,91.00
2023-03-28T14:13:48.834Z,91.20
2023-03-28T14:14:53.971Z,91.20
2023-03-28T14:15:56.561Z,91.90
2023-03-28T14:17:01.748Z,91.30
2023-03-28T14:18:04.022Z,91.30
2023-03-28T14:19:06.532Z,91.30
2023-03-28T14:20:08.788Z,92.00
2023-03-28T14:21:10.933Z,90.90
2023-03-28T14:22:26.009Z,91.30
2023-03-28T14:23:31.383Z,91.50
2023-03-28T14:24:33.052Z,91.00
2023-03-28T14:25:34.586Z,91.40
2023-03-28T14:26:37.090Z,92.00
2023-03-28T14:27:45.365Z,92.30
2023-03-28T14:28:47.091Z,92.00
2023-03-28T14:29:56.722Z,91.90
2023-03-28T14:30:59.313Z,91.10
2023-03-28T14:32:05.833Z,90.20
2023-03-28T14:33:13.542Z,90.80
2023-03-28T14:34:38.829Z,91.10
2023-03-28T14:35:47.849Z,91.00
2023-03-28T14:36:58.493Z,90.60
2023-03-28T14:38:12.028Z,94.30
2023-03-28T14:39:18.413Z,93.70
2023-03-28T14:40:33.048Z,91.50
2023-03-28T14:41:36.272Z,91.90
2023-03-28T14:42:37.822Z,91.80
2023-03-28T14:43:39.568Z,94.90
2023-03-28T14:44:43.614Z,93.20
2023-03-28T14:45:48.838Z,90.00
2023-03-28T14:46:51.124Z,88.10
2023-03-28T14:47:52.933Z,90.00
2023-03-28T14:48:57.505Z,90.60
2023-03-28T14:50:01.506Z,89.50
2023-03-28T14:51:05.849Z,90.80
2023-03-28T14:52:12.397Z,91.90
2023-03-28T14:53:24.749Z,90.70
2023-03-28T14:54:36.118Z,88.40
2023-03-28T14:55:38.272Z,91.00
2023-03-28T14:56:41.280Z,90.10
2023-03-28T14:57:43.876Z,85.00
2023-03-28T14:58:49.976Z,88.50
2023-03-28T14:59:52.453Z,84.20
2023-03-28T15:00:59.256Z,82.20
2023-03-28T15:02:04.324Z,85.70
2023-03-28T15:03:12.026Z,84.60
2023-03-28T15:04:14.591Z,84.40
2023-03-28T15:05:19.225Z,83.60
2023-03-28T15:06:22.626Z,84.90
2023-03-28T15:07:28.499Z,86.70
2023-03-28T15:08:37.844Z,87.70
2023-03-28T15:09:39.516Z,88.90
2023-03-28T15:10:49.833Z,90.50
2023-03-28T15:11:51.995Z,90.20
2023-03-28T15:13:18.374Z,90.70
2023-03-28T15:14:44.927Z,90.00
2023-03-28T15:15:48.890Z,90.70
2023-03-28T15:16:50.779Z,90.80
2023-03-28T15:17:54.783Z,91.20
2023-03-28T15:19:07.056Z,91.40
2023-03-28T15:20:15.202Z,92.10
2023-03-28T15:21:16.937Z,92.20
2023-03-28T15:22:25.848Z,91.80